sensor_id;sensor_type;location;lat;lon;timestamp;P1;durP1;ratioP1;P2;durP2;ratioP2
45338;SDS011;31071;51.478;5.710;2023-11-21T00:01:22;44.35;;;20.02;;
45338;SDS011;31071;51.478;5.710;2023-11-21T00:03:48;41.78;;;19.27;;
45338;SDS011;31071;51.478;5.710;2023-11-21T00:06:15;44.97;;;19.83;;
45338;SDS011;31071;51.478;5.710;2023-11-21T00:08:40;46.38;;;19.15;;
45338;SDS011;31071;51.478;5.710;2023-11-21T00:11:06;45.58;;;20.85;;
45338;SDS011;31071;51.478;5.710;2023-11-21T00:13:32;43.42;;;19.48;;
45338;SDS011;31071;51.478;5.710;2023-11-21T00:16:00;39.00;;;19.95;;
45338;SDS011;31071;51.478;5.710;2023-11-21T00:18:26;40.53;;;19.67;;
45338;SDS011;31071;51.478;5.710;2023-11-21T00:20:51;41.15;;;20.95;;
45338;SDS011;31071;51.478;5.710;2023-11-21T00:23:24;42.15;;;21.60;;
45338;SDS011;31071;51.478;5.710;2023-11-21T00:25:50;40.22;;;19.75;;
45338;SDS011;31071;51.478;5.710;2023-11-21T00:28:19;43.92;;;20.60;;
45338;SDS011;31071;51.478;5.710;2023-11-21T00:30:45;40.65;;;21.08;;
45338;SDS011;31071;51.478;5.710;2023-11-21T00:33:13;42.67;;;20.42;;
45338;SDS011;31071;51.478;5.710;2023-11-21T00:35:39;38.70;;;19.95;;
45338;SDS011;31071;51.478;5.710;2023-11-21T00:38:05;44.55;;;21.73;;
45338;SDS011;31071;51.478;5.710;2023-11-21T00:40:33;39.38;;;19.40;;
45338;SDS011;31071;51.478;5.710;2023-11-21T00:42:59;39.15;;;21.10;;
45338;SDS011;31071;51.478;5.710;2023-11-21T00:45:26;34.38;;;19.83;;
45338;SDS011;31071;51.478;5.710;2023-11-21T00:47:51;42.78;;;20.75;;
45338;SDS011;31071;51.478;5.710;2023-11-21T00:50:17;34.63;;;19.65;;
45338;SDS011;31071;51.478;5.710;2023-11-21T00:52:44;40.05;;;20.20;;
45338;SDS011;31071;51.478;5.710;2023-11-21T00:55:10;42.03;;;21.45;;
45338;SDS011;31071;51.478;5.710;2023-11-21T00:57:36;35.50;;;20.58;;
45338;SDS011;31071;51.478;5.710;2023-11-21T01:00:02;38.22;;;21.33;;
45338;SDS011;31071;51.478;5.710;2023-11-21T01:02:32;44.88;;;21.95;;
45338;SDS011;31071;51.478;5.710;2023-11-21T01:05:00;45.63;;;21.65;;
45338;SDS011;31071;51.478;5.710;2023-11-21T01:07:26;40.03;;;22.02;;
45338;SDS011;31071;51.478;5.710;2023-11-21T01:09:52;37.50;;;21.90;;
45338;SDS011;31071;51.478;5.710;2023-11-21T01:12:18;40.33;;;20.95;;
45338;SDS011;31071;51.478;5.710;2023-11-21T01:14:44;44.33;;;21.98;;
45338;SDS011;31071;51.478;5.710;2023-11-21T01:17:12;41.28;;;22.27;;
45338;SDS011;31071;51.478;5.710;2023-11-21T01:19:38;44.67;;;21.95;;
45338;SDS011;31071;51.478;5.710;2023-11-21T01:22:04;40.50;;;21.92;;
45338;SDS011;31071;51.478;5.710;2023-11-21T01:24:29;45.00;;;23.05;;
45338;SDS011;31071;51.478;5.710;2023-11-21T01:26:55;52.97;;;23.27;;
45338;SDS011;31071;51.478;5.710;2023-11-21T01:29:21;42.10;;;22.60;;
45338;SDS011;31071;51.478;5.710;2023-11-21T01:31:47;46.38;;;23.02;;
45338;SDS011;31071;51.478;5.710;2023-11-21T01:34:13;42.67;;;21.45;;
45338;SDS011;31071;51.478;5.710;2023-11-21T01:36:39;44.72;;;22.83;;
45338;SDS011;31071;51.478;5.710;2023-11-21T01:39:05;47.35;;;22.60;;
45338;SDS011;31071;51.478;5.710;2023-11-21T01:41:35;42.42;;;22.73;;
45338;SDS011;31071;51.478;5.710;2023-11-21T01:44:02;50.42;;;23.15;;
45338;SDS011;31071;51.478;5.710;2023-11-21T01:46:28;47.20;;;22.60;;
45338;SDS011;31071;51.478;5.710;2023-11-21T01:48:54;45.60;;;23.80;;
45338;SDS011;31071;51.478;5.710;2023-11-21T01:51:20;46.28;;;23.77;;
45338;SDS011;31071;51.478;5.710;2023-11-21T01:53:46;47.78;;;23.85;;
45338;SDS011;31071;51.478;5.710;2023-11-21T01:56:12;37.88;;;21.40;;
45338;SDS011;31071;51.478;5.710;2023-11-21T01:58:39;45.72;;;22.90;;
45338;SDS011;31071;51.478;5.710;2023-11-21T02:01:06;51.00;;;23.58;;
45338;SDS011;31071;51.478;5.710;2023-11-21T02:03:32;46.03;;;23.67;;
45338;SDS011;31071;51.478;5.710;2023-11-21T02:05:57;43.45;;;22.77;;
45338;SDS011;31071;51.478;5.710;2023-11-21T02:08:23;47.80;;;22.70;;
45338;SDS011;31071;51.478;5.710;2023-11-21T02:10:49;46.83;;;22.95;;
45338;SDS011;31071;51.478;5.710;2023-11-21T02:13:15;46.67;;;23.60;;
45338;SDS011;31071;51.478;5.710;2023-11-21T02:15:41;42.97;;;22.85;;
45338;SDS011;31071;51.478;5.710;2023-11-21T02:18:07;45.10;;;23.60;;
45338;SDS011;31071;51.478;5.710;2023-11-21T02:20:35;42.80;;;23.73;;
45338;SDS011;31071;51.478;5.710;2023-11-21T02:23:03;43.72;;;22.95;;
45338;SDS011;31071;51.478;5.710;2023-11-21T02:25:31;45.22;;;23.10;;
45338;SDS011;31071;51.478;5.710;2023-11-21T02:27:58;42.53;;;22.67;;
45338;SDS011;31071;51.478;5.710;2023-11-21T02:30:25;48.67;;;23.08;;
45338;SDS011;31071;51.478;5.710;2023-11-21T02:32:57;48.50;;;23.48;;
45338;SDS011;31071;51.478;5.710;2023-11-21T02:35:26;50.72;;;24.17;;
45338;SDS011;31071;51.478;5.710;2023-11-21T02:37:53;50.47;;;24.65;;
45338;SDS011;31071;51.478;5.710;2023-11-21T02:40:19;99.55;;;28.25;;
45338;SDS011;31071;51.478;5.710;2023-11-21T02:42:49;67.82;;;28.20;;
45338;SDS011;31071;51.478;5.710;2023-11-21T02:45:27;72.57;;;29.20;;
45338;SDS011;31071;51.478;5.710;2023-11-21T02:47:53;97.57;;;28.67;;
45338;SDS011;31071;51.478;5.710;2023-11-21T02:50:22;112.03;;;30.63;;
45338;SDS011;31071;51.478;5.710;2023-11-21T02:52:47;143.85;;;30.50;;
45338;SDS011;31071;51.478;5.710;2023-11-21T02:55:14;208.57;;;33.58;;
45338;SDS011;31071;51.478;5.710;2023-11-21T02:57:40;218.98;;;34.67;;
45338;SDS011;31071;51.478;5.710;2023-11-21T03:00:06;246.75;;;34.88;;
45338;SDS011;31071;51.478;5.710;2023-11-21T03:02:33;143.40;;;32.53;;
45338;SDS011;31071;51.478;5.710;2023-11-21T03:05:03;132.18;;;31.25;;
45338;SDS011;31071;51.478;5.710;2023-11-21T03:07:30;165.70;;;31.92;;
45338;SDS011;31071;51.478;5.710;2023-11-21T03:09:56;164.98;;;33.28;;
45338;SDS011;31071;51.478;5.710;2023-11-21T03:12:22;209.50;;;35.17;;
45338;SDS011;31071;51.478;5.710;2023-11-21T03:14:48;222.13;;;34.28;;
45338;SDS011;31071;51.478;5.710;2023-11-21T03:17:33;242.32;;;35.25;;
45338;SDS011;31071;51.478;5.710;2023-11-21T03:20:02;279.73;;;38.67;;
45338;SDS011;31071;51.478;5.710;2023-11-21T03:22:28;186.48;;;34.55;;
45338;SDS011;31071;51.478;5.710;2023-11-21T03:24:54;247.02;;;35.90;;
45338;SDS011;31071;51.478;5.710;2023-11-21T03:27:20;318.02;;;36.97;;
45338;SDS011;31071;51.478;5.710;2023-11-21T03:29:46;158.40;;;33.05;;
45338;SDS011;31071;51.478;5.710;2023-11-21T03:32:13;228.63;;;35.72;;
45338;SDS011;31071;51.478;5.710;2023-11-21T03:34:52;219.98;;;35.40;;
45338;SDS011;31071;51.478;5.710;2023-11-21T03:37:22;166.50;;;34.30;;
45338;SDS011;31071;51.478;5.710;2023-11-21T03:39:50;114.20;;;33.42;;
45338;SDS011;31071;51.478;5.710;2023-11-21T03:42:16;168.38;;;34.88;;
45338;SDS011;31071;51.478;5.710;2023-11-21T03:44:41;103.30;;;33.38;;
45338;SDS011;31071;51.478;5.710;2023-11-21T03:47:08;280.20;;;39.65;;
45338;SDS011;31071;51.478;5.710;2023-11-21T03:49:34;272.27;;;37.38;;
45338;SDS011;31071;51.478;5.710;2023-11-21T03:51:59;301.60;;;38.60;;
45338;SDS011;31071;51.478;5.710;2023-11-21T03:54:25;250.75;;;34.75;;
45338;SDS011;31071;51.478;5.710;2023-11-21T03:56:51;257.30;;;35.92;;
45338;SDS011;31071;51.478;5.710;2023-11-21T03:59:17;179.52;;;34.78;;
45338;SDS011;31071;51.478;5.710;2023-11-21T04:01:43;203.57;;;32.47;;
45338;SDS011;31071;51.478;5.710;2023-11-21T04:04:08;372.00;;;40.13;;
45338;SDS011;31071;51.478;5.710;2023-11-21T04:06:37;175.10;;;33.03;;
45338;SDS011;31071;51.478;5.710;2023-11-21T04:09:03;169.18;;;34.08;;
45338;SDS011;31071;51.478;5.710;2023-11-21T04:11:32;146.10;;;33.40;;
45338;SDS011;31071;51.478;5.710;2023-11-21T04:13:58;235.65;;;35.95;;
45338;SDS011;31071;51.478;5.710;2023-11-21T04:16:24;198.50;;;34.30;;
45338;SDS011;31071;51.478;5.710;2023-11-21T04:18:50;136.73;;;31.70;;
45338;SDS011;31071;51.478;5.710;2023-11-21T04:21:16;270.95;;;39.22;;
45338;SDS011;31071;51.478;5.710;2023-11-21T04:23:42;141.07;;;33.63;;
45338;SDS011;31071;51.478;5.710;2023-11-21T04:26:07;95.43;;;32.78;;
45338;SDS011;31071;51.478;5.710;2023-11-21T04:28:33;147.20;;;33.80;;
45338;SDS011;31071;51.478;5.710;2023-11-21T04:30:59;143.70;;;34.53;;
45338;SDS011;31071;51.478;5.710;2023-11-21T04:33:25;139.57;;;34.83;;
45338;SDS011;31071;51.478;5.710;2023-11-21T04:35:51;307.38;;;40.53;;
45338;SDS011;31071;51.478;5.710;2023-11-21T04:38:17;195.15;;;37.00;;
45338;SDS011;31071;51.478;5.710;2023-11-21T04:40:44;136.07;;;35.20;;
45338;SDS011;31071;51.478;5.710;2023-11-21T04:43:10;109.53;;;34.58;;
45338;SDS011;31071;51.478;5.710;2023-11-21T04:45:36;145.73;;;35.47;;
45338;SDS011;31071;51.478;5.710;2023-11-21T04:48:02;262.52;;;37.80;;
45338;SDS011;31071;51.478;5.710;2023-11-21T04:50:28;184.98;;;35.20;;
45338;SDS011;31071;51.478;5.710;2023-11-21T04:52:54;196.23;;;36.42;;
45338;SDS011;31071;51.478;5.710;2023-11-21T04:55:20;163.43;;;37.22;;
45338;SDS011;31071;51.478;5.710;2023-11-21T04:57:46;116.97;;;35.42;;
45338;SDS011;31071;51.478;5.710;2023-11-21T05:00:12;197.23;;;37.40;;
45338;SDS011;31071;51.478;5.710;2023-11-21T05:02:39;195.48;;;35.75;;
45338;SDS011;31071;51.478;5.710;2023-11-21T05:05:06;216.60;;;36.65;;
45338;SDS011;31071;51.478;5.710;2023-11-21T05:07:33;133.68;;;32.88;;
45338;SDS011;31071;51.478;5.710;2023-11-21T05:10:00;171.73;;;35.85;;
45338;SDS011;31071;51.478;5.710;2023-11-21T05:12:30;188.77;;;34.15;;
45338;SDS011;31071;51.478;5.710;2023-11-21T05:15:07;211.43;;;37.05;;
45338;SDS011;31071;51.478;5.710;2023-11-21T05:17:36;187.13;;;35.22;;
45338;SDS011;31071;51.478;5.710;2023-11-21T05:20:06;226.63;;;35.58;;
45338;SDS011;31071;51.478;5.710;2023-11-21T05:22:33;125.10;;;33.72;;
45338;SDS011;31071;51.478;5.710;2023-11-21T05:24:59;103.15;;;32.67;;
45338;SDS011;31071;51.478;5.710;2023-11-21T05:27:26;182.27;;;35.08;;
45338;SDS011;31071;51.478;5.710;2023-11-21T05:29:52;151.38;;;35.65;;
45338;SDS011;31071;51.478;5.710;2023-11-21T05:32:17;143.13;;;34.30;;
45338;SDS011;31071;51.478;5.710;2023-11-21T05:34:43;80.95;;;32.60;;
45338;SDS011;31071;51.478;5.710;2023-11-21T05:37:09;149.65;;;35.22;;
45338;SDS011;31071;51.478;5.710;2023-11-21T05:39:35;129.85;;;33.88;;
45338;SDS011;31071;51.478;5.710;2023-11-21T05:42:01;105.82;;;33.03;;
45338;SDS011;31071;51.478;5.710;2023-11-21T05:44:26;185.65;;;35.60;;
45338;SDS011;31071;51.478;5.710;2023-11-21T05:46:52;134.45;;;32.90;;
45338;SDS011;31071;51.478;5.710;2023-11-21T05:49:18;116.28;;;33.20;;
45338;SDS011;31071;51.478;5.710;2023-11-21T05:51:46;92.45;;;32.80;;
45338;SDS011;31071;51.478;5.710;2023-11-21T05:54:12;97.10;;;33.75;;
45338;SDS011;31071;51.478;5.710;2023-11-21T05:56:38;104.53;;;35.05;;
45338;SDS011;31071;51.478;5.710;2023-11-21T05:59:04;82.90;;;33.83;;
45338;SDS011;31071;51.478;5.710;2023-11-21T06:01:31;99.70;;;32.60;;
45338;SDS011;31071;51.478;5.710;2023-11-21T06:03:57;76.68;;;33.83;;
45338;SDS011;31071;51.478;5.710;2023-11-21T06:06:26;79.75;;;33.45;;
45338;SDS011;31071;51.478;5.710;2023-11-21T06:08:52;66.78;;;32.13;;
45338;SDS011;31071;51.478;5.710;2023-11-21T06:11:18;74.13;;;32.15;;
45338;SDS011;31071;51.478;5.710;2023-11-21T06:13:44;85.97;;;32.13;;
45338;SDS011;31071;51.478;5.710;2023-11-21T06:16:10;71.72;;;31.83;;
45338;SDS011;31071;51.478;5.710;2023-11-21T06:18:38;73.90;;;32.13;;
45338;SDS011;31071;51.478;5.710;2023-11-21T06:21:04;72.20;;;32.90;;
45338;SDS011;31071;51.478;5.710;2023-11-21T06:23:30;71.95;;;32.40;;
45338;SDS011;31071;51.478;5.710;2023-11-21T06:25:56;70.40;;;30.83;;
45338;SDS011;31071;51.478;5.710;2023-11-21T06:28:28;66.88;;;32.22;;
45338;SDS011;31071;51.478;5.710;2023-11-21T06:30:54;77.67;;;32.67;;
45338;SDS011;31071;51.478;5.710;2023-11-21T06:33:20;74.97;;;33.00;;
45338;SDS011;31071;51.478;5.710;2023-11-21T06:35:46;72.45;;;31.73;;
45338;SDS011;31071;51.478;5.710;2023-11-21T06:38:12;62.65;;;30.27;;
45338;SDS011;31071;51.478;5.710;2023-11-21T06:40:38;64.80;;;31.67;;
45338;SDS011;31071;51.478;5.710;2023-11-21T06:43:04;73.60;;;31.58;;
45338;SDS011;31071;51.478;5.710;2023-11-21T06:45:32;72.40;;;30.95;;
45338;SDS011;31071;51.478;5.710;2023-11-21T06:48:01;73.88;;;30.38;;
45338;SDS011;31071;51.478;5.710;2023-11-21T06:50:27;76.07;;;31.17;;
45338;SDS011;31071;51.478;5.710;2023-11-21T06:52:53;68.18;;;29.80;;
45338;SDS011;31071;51.478;5.710;2023-11-21T06:55:19;78.95;;;32.90;;
45338;SDS011;31071;51.478;5.710;2023-11-21T06:57:48;75.40;;;31.65;;
45338;SDS011;31071;51.478;5.710;2023-11-21T07:00:17;72.55;;;31.52;;
45338;SDS011;31071;51.478;5.710;2023-11-21T07:02:44;77.63;;;32.88;;
45338;SDS011;31071;51.478;5.710;2023-11-21T07:05:20;77.82;;;31.02;;
45338;SDS011;31071;51.478;5.710;2023-11-21T07:07:46;78.65;;;32.35;;
45338;SDS011;31071;51.478;5.710;2023-11-21T07:10:15;75.43;;;31.98;;
45338;SDS011;31071;51.478;5.710;2023-11-21T07:12:42;81.45;;;31.88;;
45338;SDS011;31071;51.478;5.710;2023-11-21T07:18:04;79.45;;;33.67;;
45338;SDS011;31071;51.478;5.710;2023-11-21T07:20:33;85.35;;;32.80;;
45338;SDS011;31071;51.478;5.710;2023-11-21T07:22:59;82.63;;;33.72;;
45338;SDS011;31071;51.478;5.710;2023-11-21T07:25:25;83.75;;;33.88;;
45338;SDS011;31071;51.478;5.710;2023-11-21T07:27:51;83.63;;;34.30;;
45338;SDS011;31071;51.478;5.710;2023-11-21T07:30:18;96.82;;;36.83;;
45338;SDS011;31071;51.478;5.710;2023-11-21T07:33:02;89.43;;;36.40;;
45338;SDS011;31071;51.478;5.710;2023-11-21T07:45:55;113.30;;;39.85;;
45338;SDS011;31071;51.478;5.710;2023-11-21T07:48:37;104.07;;;39.63;;
45338;SDS011;31071;51.478;5.710;2023-11-21T07:51:29;116.95;;;40.17;;
45338;SDS011;31071;51.478;5.710;2023-11-21T07:56:53;117.47;;;39.92;;
45338;SDS011;31071;51.478;5.710;2023-11-21T07:59:19;116.32;;;38.13;;
45338;SDS011;31071;51.478;5.710;2023-11-21T08:01:44;111.07;;;36.42;;
45338;SDS011;31071;51.478;5.710;2023-11-21T08:04:11;109.53;;;35.92;;
45338;SDS011;31071;51.478;5.710;2023-11-21T08:06:37;97.68;;;34.85;;
45338;SDS011;31071;51.478;5.710;2023-11-21T08:09:09;97.03;;;34.38;;
45338;SDS011;31071;51.478;5.710;2023-11-21T08:11:40;98.53;;;34.85;;
45338;SDS011;31071;51.478;5.710;2023-11-21T08:14:07;90.05;;;34.08;;
45338;SDS011;31071;51.478;5.710;2023-11-21T08:16:32;96.32;;;34.00;;
45338;SDS011;31071;51.478;5.710;2023-11-21T08:18:58;98.70;;;34.00;;
45338;SDS011;31071;51.478;5.710;2023-11-21T08:21:24;91.72;;;34.15;;
45338;SDS011;31071;51.478;5.710;2023-11-21T08:23:50;80.78;;;33.35;;
45338;SDS011;31071;51.478;5.710;2023-11-21T08:26:19;86.70;;;32.83;;
45338;SDS011;31071;51.478;5.710;2023-11-21T08:28:46;87.05;;;32.92;;
45338;SDS011;31071;51.478;5.710;2023-11-21T08:31:12;78.07;;;31.65;;
45338;SDS011;31071;51.478;5.710;2023-11-21T08:33:47;75.30;;;30.90;;
45338;SDS011;31071;51.478;5.710;2023-11-21T08:36:12;85.30;;;32.30;;
45338;SDS011;31071;51.478;5.710;2023-11-21T08:38:38;86.85;;;32.53;;
45338;SDS011;31071;51.478;5.710;2023-11-21T08:41:05;77.82;;;31.17;;
45338;SDS011;31071;51.478;5.710;2023-11-21T08:43:37;76.78;;;31.30;;
45338;SDS011;31071;51.478;5.710;2023-11-21T08:46:07;73.03;;;32.28;;
45338;SDS011;31071;51.478;5.710;2023-11-21T08:48:34;76.00;;;30.73;;
45338;SDS011;31071;51.478;5.710;2023-11-21T08:51:03;75.85;;;32.08;;
45338;SDS011;31071;51.478;5.710;2023-11-21T08:53:41;65.38;;;30.40;;
45338;SDS011;31071;51.478;5.710;2023-11-21T08:56:07;72.30;;;30.05;;
45338;SDS011;31071;51.478;5.710;2023-11-21T08:58:34;69.43;;;30.52;;
45338;SDS011;31071;51.478;5.710;2023-11-21T09:01:02;75.05;;;30.88;;
45338;SDS011;31071;51.478;5.710;2023-11-21T09:03:28;72.55;;;31.10;;
45338;SDS011;31071;51.478;5.710;2023-11-21T09:05:53;69.78;;;30.98;;
45338;SDS011;31071;51.478;5.710;2023-11-21T09:08:19;76.00;;;31.38;;
45338;SDS011;31071;51.478;5.710;2023-11-21T09:13:43;74.35;;;30.70;;
45338;SDS011;31071;51.478;5.710;2023-11-21T09:19:08;72.78;;;30.42;;
45338;SDS011;31071;51.478;5.710;2023-11-21T09:22:15;70.78;;;30.27;;
45338;SDS011;31071;51.478;5.710;2023-11-21T09:28:45;67.57;;;29.27;;
45338;SDS011;31071;51.478;5.710;2023-11-21T09:31:13;66.05;;;29.00;;
45338;SDS011;31071;51.478;5.710;2023-11-21T09:33:43;70.78;;;30.00;;
45338;SDS011;31071;51.478;5.710;2023-11-21T09:36:12;66.18;;;29.77;;
45338;SDS011;31071;51.478;5.710;2023-11-21T09:38:44;70.88;;;29.38;;
45338;SDS011;31071;51.478;5.710;2023-11-21T09:41:19;70.85;;;29.08;;
45338;SDS011;31071;51.478;5.710;2023-11-21T09:44:03;58.72;;;25.77;;
45338;SDS011;31071;51.478;5.710;2023-11-21T09:46:53;70.72;;;27.92;;
45338;SDS011;31071;51.478;5.710;2023-11-21T09:49:24;62.00;;;26.73;;
45338;SDS011;31071;51.478;5.710;2023-11-21T09:52:01;60.40;;;27.30;;
45338;SDS011;31071;51.478;5.710;2023-11-21T09:54:31;58.20;;;26.95;;
45338;SDS011;31071;51.478;5.710;2023-11-21T09:57:03;63.30;;;26.55;;
45338;SDS011;31071;51.478;5.710;2023-11-21T10:00:17;62.42;;;25.77;;
45338;SDS011;31071;51.478;5.710;2023-11-21T10:02:25;64.07;;;26.20;;
45338;SDS011;31071;51.478;5.710;2023-11-21T10:04:55;66.07;;;26.35;;
45338;SDS011;31071;51.478;5.710;2023-11-21T10:07:21;60.88;;;27.00;;
45338;SDS011;31071;51.478;5.710;2023-11-21T10:10:10;59.47;;;26.77;;
45338;SDS011;31071;51.478;5.710;2023-11-21T10:12:47;68.82;;;28.63;;
45338;SDS011;31071;51.478;5.710;2023-11-21T10:16:13;66.32;;;26.33;;
45338;SDS011;31071;51.478;5.710;2023-11-21T10:18:53;63.47;;;27.20;;
45338;SDS011;31071;51.478;5.710;2023-11-21T10:21:25;72.10;;;28.88;;
45338;SDS011;31071;51.478;5.710;2023-11-21T10:23:59;71.07;;;29.08;;
45338;SDS011;31071;51.478;5.710;2023-11-21T10:26:45;74.18;;;30.15;;
45338;SDS011;31071;51.478;5.710;2023-11-21T10:29:15;69.53;;;30.65;;
45338;SDS011;31071;51.478;5.710;2023-11-21T10:31:48;69.63;;;30.23;;
45338;SDS011;31071;51.478;5.710;2023-11-21T10:34:15;81.32;;;33.53;;
45338;SDS011;31071;51.478;5.710;2023-11-21T10:36:54;82.78;;;32.80;;
45338;SDS011;31071;51.478;5.710;2023-11-21T10:39:31;79.38;;;32.70;;
45338;SDS011;31071;51.478;5.710;2023-11-21T10:41:58;82.60;;;32.22;;
45338;SDS011;31071;51.478;5.710;2023-11-21T10:44:24;75.65;;;31.95;;
45338;SDS011;31071;51.478;5.710;2023-11-21T10:46:53;88.50;;;33.05;;
45338;SDS011;31071;51.478;5.710;2023-11-21T10:49:22;88.82;;;33.75;;
45338;SDS011;31071;51.478;5.710;2023-11-21T10:52:00;89.72;;;33.53;;
45338;SDS011;31071;51.478;5.710;2023-11-21T10:54:39;88.10;;;32.40;;
45338;SDS011;31071;51.478;5.710;2023-11-21T10:57:05;81.45;;;32.90;;
45338;SDS011;31071;51.478;5.710;2023-11-21T10:59:32;82.35;;;32.60;;
45338;SDS011;31071;51.478;5.710;2023-11-21T11:01:58;85.47;;;33.08;;
45338;SDS011;31071;51.478;5.710;2023-11-21T11:04:27;79.45;;;31.70;;
45338;SDS011;31071;51.478;5.710;2023-11-21T11:07:05;86.40;;;33.33;;
45338;SDS011;31071;51.478;5.710;2023-11-21T11:09:37;102.55;;;34.88;;
45338;SDS011;31071;51.478;5.710;2023-11-21T11:12:24;91.75;;;33.35;;
45338;SDS011;31071;51.478;5.710;2023-11-21T11:15:20;93.90;;;34.55;;
45338;SDS011;31071;51.478;5.710;2023-11-21T11:18:15;105.65;;;35.17;;
45338;SDS011;31071;51.478;5.710;2023-11-21T11:26:46;93.43;;;36.80;;
45338;SDS011;31071;51.478;5.710;2023-11-21T11:30:09;113.25;;;35.33;;
45338;SDS011;31071;51.478;5.710;2023-11-21T11:36:34;93.65;;;34.83;;
45338;SDS011;31071;51.478;5.710;2023-11-21T11:39:35;104.82;;;34.63;;
45338;SDS011;31071;51.478;5.710;2023-11-21T11:42:16;83.30;;;32.95;;
45338;SDS011;31071;51.478;5.710;2023-11-21T11:44:49;100.55;;;33.90;;
45338;SDS011;31071;51.478;5.710;2023-11-21T11:47:29;102.45;;;35.47;;
45338;SDS011;31071;51.478;5.710;2023-11-21T11:50:06;98.13;;;34.63;;
45338;SDS011;31071;51.478;5.710;2023-11-21T11:52:39;93.13;;;33.67;;
45338;SDS011;31071;51.478;5.710;2023-11-21T11:55:13;79.45;;;32.95;;
45338;SDS011;31071;51.478;5.710;2023-11-21T11:57:41;93.43;;;33.22;;
45338;SDS011;31071;51.478;5.710;2023-11-21T12:00:17;75.88;;;31.77;;
45338;SDS011;31071;51.478;5.710;2023-11-21T12:02:51;78.10;;;31.95;;
45338;SDS011;31071;51.478;5.710;2023-11-21T12:05:18;73.45;;;31.33;;
45338;SDS011;31071;51.478;5.710;2023-11-21T12:10:20;62.85;;;29.27;;
45338;SDS011;31071;51.478;5.710;2023-11-21T12:12:50;75.38;;;29.90;;
45338;SDS011;31071;51.478;5.710;2023-11-21T12:15:29;67.43;;;30.55;;
45338;SDS011;31071;51.478;5.710;2023-11-21T12:17:58;67.00;;;29.75;;
45338;SDS011;31071;51.478;5.710;2023-11-21T12:20:24;66.45;;;30.50;;
45338;SDS011;31071;51.478;5.710;2023-11-21T12:22:52;63.47;;;29.48;;
45338;SDS011;31071;51.478;5.710;2023-11-21T12:25:24;59.38;;;28.83;;
45338;SDS011;31071;51.478;5.710;2023-11-21T12:27:54;59.45;;;29.50;;
45338;SDS011;31071;51.478;5.710;2023-11-21T12:30:21;64.68;;;28.55;;
45338;SDS011;31071;51.478;5.710;2023-11-21T12:32:49;65.82;;;29.85;;
45338;SDS011;31071;51.478;5.710;2023-11-21T12:35:17;60.22;;;28.90;;
45338;SDS011;31071;51.478;5.710;2023-11-21T12:37:47;61.67;;;29.13;;
45338;SDS011;31071;51.478;5.710;2023-11-21T12:40:14;66.22;;;29.88;;
45338;SDS011;31071;51.478;5.710;2023-11-21T12:42:41;67.25;;;29.80;;
45338;SDS011;31071;51.478;5.710;2023-11-21T12:45:18;63.70;;;29.40;;
45338;SDS011;31071;51.478;5.710;2023-11-21T12:47:53;68.60;;;31.60;;
45338;SDS011;31071;51.478;5.710;2023-11-21T12:50:28;71.25;;;31.65;;
45338;SDS011;31071;51.478;5.710;2023-11-21T12:53:04;65.03;;;31.33;;
45338;SDS011;31071;51.478;5.710;2023-11-21T12:55:35;70.78;;;31.45;;
45338;SDS011;31071;51.478;5.710;2023-11-21T12:58:07;69.72;;;31.02;;
45338;SDS011;31071;51.478;5.710;2023-11-21T13:00:42;74.25;;;33.10;;
45338;SDS011;31071;51.478;5.710;2023-11-21T13:03:17;65.70;;;33.05;;
45338;SDS011;31071;51.478;5.710;2023-11-21T13:05:50;68.32;;;31.98;;
45338;SDS011;31071;51.478;5.710;2023-11-21T13:08:19;67.32;;;30.85;;
45338;SDS011;31071;51.478;5.710;2023-11-21T13:10:48;71.85;;;32.10;;
45338;SDS011;31071;51.478;5.710;2023-11-21T13:13:17;62.53;;;30.67;;
45338;SDS011;31071;51.478;5.710;2023-11-21T13:15:52;63.20;;;29.20;;
45338;SDS011;31071;51.478;5.710;2023-11-21T13:18:22;62.15;;;29.02;;
45338;SDS011;31071;51.478;5.710;2023-11-21T13:20:52;59.65;;;27.10;;
45338;SDS011;31071;51.478;5.710;2023-11-21T13:23:20;54.70;;;27.67;;
45338;SDS011;31071;51.478;5.710;2023-11-21T13:29:27;59.00;;;27.40;;
45338;SDS011;31071;51.478;5.710;2023-11-21T13:32:03;52.55;;;25.75;;
45338;SDS011;31071;51.478;5.710;2023-11-21T13:34:54;59.22;;;27.00;;
45338;SDS011;31071;51.478;5.710;2023-11-21T13:37:23;59.60;;;27.73;;
45338;SDS011;31071;51.478;5.710;2023-11-21T13:39:53;60.35;;;28.17;;
45338;SDS011;31071;51.478;5.710;2023-11-21T13:42:22;60.38;;;27.65;;
45338;SDS011;31071;51.478;5.710;2023-11-21T13:44:56;59.42;;;27.80;;
45338;SDS011;31071;51.478;5.710;2023-11-21T13:47:22;55.22;;;26.85;;
45338;SDS011;31071;51.478;5.710;2023-11-21T13:49:54;71.90;;;30.37;;
45338;SDS011;31071;51.478;5.710;2023-11-21T13:52:20;65.55;;;30.52;;
45338;SDS011;31071;51.478;5.710;2023-11-21T13:54:49;67.75;;;29.88;;
45338;SDS011;31071;51.478;5.710;2023-11-21T13:57:15;71.13;;;29.58;;
45338;SDS011;31071;51.478;5.710;2023-11-21T14:03:49;65.60;;;30.67;;
45338;SDS011;31071;51.478;5.710;2023-11-21T14:06:23;65.28;;;29.88;;
45338;SDS011;31071;51.478;5.710;2023-11-21T14:08:59;65.53;;;29.15;;
45338;SDS011;31071;51.478;5.710;2023-11-21T14:11:30;65.72;;;28.48;;
45338;SDS011;31071;51.478;5.710;2023-11-21T14:13:56;61.97;;;29.63;;
45338;SDS011;31071;51.478;5.710;2023-11-21T14:16:28;65.05;;;28.70;;
45338;SDS011;31071;51.478;5.710;2023-11-21T14:19:05;60.85;;;29.13;;
45338;SDS011;31071;51.478;5.710;2023-11-21T14:21:41;68.50;;;29.38;;
45338;SDS011;31071;51.478;5.710;2023-11-21T14:24:10;68.57;;;28.80;;
45338;SDS011;31071;51.478;5.710;2023-11-21T14:26:43;64.80;;;28.52;;
45338;SDS011;31071;51.478;5.710;2023-11-21T14:29:11;57.92;;;27.92;;
45338;SDS011;31071;51.478;5.710;2023-11-21T14:31:39;57.60;;;26.63;;
45338;SDS011;31071;51.478;5.710;2023-11-21T14:34:06;58.72;;;26.08;;
45338;SDS011;31071;51.478;5.710;2023-11-21T14:36:33;62.13;;;26.10;;
45338;SDS011;31071;51.478;5.710;2023-11-21T14:38:59;62.42;;;27.15;;
45338;SDS011;31071;51.478;5.710;2023-11-21T14:41:25;62.47;;;26.98;;
45338;SDS011;31071;51.478;5.710;2023-11-21T14:43:53;50.63;;;25.20;;
45338;SDS011;31071;51.478;5.710;2023-11-21T14:46:20;54.30;;;24.15;;
45338;SDS011;31071;51.478;5.710;2023-11-21T14:48:45;54.90;;;26.45;;
45338;SDS011;31071;51.478;5.710;2023-11-21T14:51:25;62.88;;;26.95;;
45338;SDS011;31071;51.478;5.710;2023-11-21T14:53:52;54.67;;;25.02;;
45338;SDS011;31071;51.478;5.710;2023-11-21T14:56:19;54.47;;;25.45;;
45338;SDS011;31071;51.478;5.710;2023-11-21T14:58:56;43.40;;;20.02;;
45338;SDS011;31071;51.478;5.710;2023-11-21T15:01:25;45.13;;;21.00;;
45338;SDS011;31071;51.478;5.710;2023-11-21T15:04:11;41.10;;;19.00;;
45338;SDS011;31071;51.478;5.710;2023-11-21T15:06:46;35.97;;;17.45;;
45338;SDS011;31071;51.478;5.710;2023-11-21T15:09:13;34.80;;;17.80;;
45338;SDS011;31071;51.478;5.710;2023-11-21T15:11:39;39.28;;;18.08;;
45338;SDS011;31071;51.478;5.710;2023-11-21T15:14:08;38.70;;;18.90;;
45338;SDS011;31071;51.478;5.710;2023-11-21T15:16:37;50.95;;;20.58;;
45338;SDS011;31071;51.478;5.710;2023-11-21T15:19:11;44.83;;;22.27;;